sensor_id;sensor_type;location;lat;lon;timestamp;P1;durP1;ratioP1;P2;durP2;ratioP2
24644;SDS011;12780;45.502;9.146;2023-12-20T00:01:32;69.07;;;33.58;;
24644;SDS011;12780;45.502;9.146;2023-12-20T00:03:58;62.95;;;33.58;;
24644;SDS011;12780;45.502;9.146;2023-12-20T00:06:24;70.03;;;34.50;;
24644;SDS011;12780;45.502;9.146;2023-12-20T00:08:50;63.92;;;33.50;;
24644;SDS011;12780;45.502;9.146;2023-12-20T00:11:16;63.10;;;35.17;;
24644;SDS011;12780;45.502;9.146;2023-12-20T00:13:42;62.65;;;34.17;;
24644;SDS011;12780;45.502;9.146;2023-12-20T00:16:08;66.32;;;33.38;;
24644;SDS011;12780;45.502;9.146;2023-12-20T00:18:34;60.80;;;34.10;;
24644;SDS011;12780;45.502;9.146;2023-12-20T00:21:00;68.80;;;35.03;;
24644;SDS011;12780;45.502;9.146;2023-12-20T00:23:26;70.97;;;34.00;;
24644;SDS011;12780;45.502;9.146;2023-12-20T00:25:52;68.85;;;34.00;;
24644;SDS011;12780;45.502;9.146;2023-12-20T00:28:18;66.60;;;32.53;;
24644;SDS011;12780;45.502;9.146;2023-12-20T00:30:44;66.97;;;34.58;;
24644;SDS011;12780;45.502;9.146;2023-12-20T00:33:10;66.97;;;32.90;;
24644;SDS011;12780;45.502;9.146;2023-12-20T00:35:36;65.25;;;34.05;;
24644;SDS011;12780;45.502;9.146;2023-12-20T00:38:02;66.90;;;33.15;;
24644;SDS011;12780;45.502;9.146;2023-12-20T00:40:30;63.20;;;32.60;;
24644;SDS011;12780;45.502;9.146;2023-12-20T00:42:56;62.78;;;32.55;;
24644;SDS011;12780;45.502;9.146;2023-12-20T00:45:22;63.63;;;33.13;;
24644;SDS011;12780;45.502;9.146;2023-12-20T00:47:48;64.78;;;33.72;;
24644;SDS011;12780;45.502;9.146;2023-12-20T00:50:14;70.30;;;33.50;;
24644;SDS011;12780;45.502;9.146;2023-12-20T00:52:40;65.65;;;33.33;;
24644;SDS011;12780;45.502;9.146;2023-12-20T00:55:06;72.13;;;34.05;;
24644;SDS011;12780;45.502;9.146;2023-12-20T00:57:32;65.03;;;32.95;;
24644;SDS011;12780;45.502;9.146;2023-12-20T00:59:58;57.45;;;31.05;;
24644;SDS011;12780;45.502;9.146;2023-12-20T01:02:24;67.63;;;35.03;;
24644;SDS011;12780;45.502;9.146;2023-12-20T01:04:50;55.53;;;32.33;;
24644;SDS011;12780;45.502;9.146;2023-12-20T01:07:16;74.30;;;32.25;;
24644;SDS011;12780;45.502;9.146;2023-12-20T01:09:42;61.00;;;32.17;;
24644;SDS011;12780;45.502;9.146;2023-12-20T01:12:08;61.40;;;33.33;;
24644;SDS011;12780;45.502;9.146;2023-12-20T01:14:35;62.10;;;31.23;;
24644;SDS011;12780;45.502;9.146;2023-12-20T01:17:01;60.17;;;32.17;;
24644;SDS011;12780;45.502;9.146;2023-12-20T01:19:27;66.78;;;32.60;;
24644;SDS011;12780;45.502;9.146;2023-12-20T01:21:54;55.72;;;31.05;;
24644;SDS011;12780;45.502;9.146;2023-12-20T01:24:20;63.05;;;31.92;;
24644;SDS011;12780;45.502;9.146;2023-12-20T01:26:46;56.13;;;29.67;;
24644;SDS011;12780;45.502;9.146;2023-12-20T01:29:12;57.13;;;30.92;;
24644;SDS011;12780;45.502;9.146;2023-12-20T01:31:39;59.15;;;31.90;;
24644;SDS011;12780;45.502;9.146;2023-12-20T01:34:05;60.97;;;31.83;;
24644;SDS011;12780;45.502;9.146;2023-12-20T01:36:31;58.33;;;32.45;;
24644;SDS011;12780;45.502;9.146;2023-12-20T01:38:57;63.55;;;31.70;;
24644;SDS011;12780;45.502;9.146;2023-12-20T01:41:23;61.88;;;31.13;;
24644;SDS011;12780;45.502;9.146;2023-12-20T01:43:49;54.97;;;29.23;;
24644;SDS011;12780;45.502;9.146;2023-12-20T01:46:15;60.03;;;30.77;;
24644;SDS011;12780;45.502;9.146;2023-12-20T01:48:42;56.80;;;28.90;;
24644;SDS011;12780;45.502;9.146;2023-12-20T01:51:08;55.80;;;30.08;;
24644;SDS011;12780;45.502;9.146;2023-12-20T01:53:35;62.50;;;30.58;;
24644;SDS011;12780;45.502;9.146;2023-12-20T01:56:01;54.88;;;29.33;;
24644;SDS011;12780;45.502;9.146;2023-12-20T01:58:27;54.08;;;28.52;;
24644;SDS011;12780;45.502;9.146;2023-12-20T02:00:53;59.58;;;30.10;;
24644;SDS011;12780;45.502;9.146;2023-12-20T02:03:19;61.60;;;30.50;;
24644;SDS011;12780;45.502;9.146;2023-12-20T02:05:46;56.78;;;30.55;;
24644;SDS011;12780;45.502;9.146;2023-12-20T02:08:13;53.80;;;29.67;;
24644;SDS011;12780;45.502;9.146;2023-12-20T02:10:39;58.22;;;29.20;;
24644;SDS011;12780;45.502;9.146;2023-12-20T02:13:05;56.05;;;27.65;;
24644;SDS011;12780;45.502;9.146;2023-12-20T02:15:32;57.42;;;28.10;;
24644;SDS011;12780;45.502;9.146;2023-12-20T02:17:58;54.90;;;29.15;;
24644;SDS011;12780;45.502;9.146;2023-12-20T02:20:24;56.05;;;30.05;;
24644;SDS011;12780;45.502;9.146;2023-12-20T02:22:50;62.63;;;29.98;;
24644;SDS011;12780;45.502;9.146;2023-12-20T02:25:16;56.80;;;30.40;;
24644;SDS011;12780;45.502;9.146;2023-12-20T02:27:42;59.33;;;30.50;;
24644;SDS011;12780;45.502;9.146;2023-12-20T02:30:10;57.30;;;30.67;;
24644;SDS011;12780;45.502;9.146;2023-12-20T02:32:36;54.15;;;30.63;;
24644;SDS011;12780;45.502;9.146;2023-12-20T02:35:02;60.15;;;31.20;;
24644;SDS011;12780;45.502;9.146;2023-12-20T02:37:28;54.15;;;30.15;;
24644;SDS011;12780;45.502;9.146;2023-12-20T02:39:54;61.10;;;29.38;;
24644;SDS011;12780;45.502;9.146;2023-12-20T02:42:20;60.17;;;29.48;;
24644;SDS011;12780;45.502;9.146;2023-12-20T02:44:46;53.28;;;28.35;;
24644;SDS011;12780;45.502;9.146;2023-12-20T02:47:12;56.20;;;28.10;;
24644;SDS011;12780;45.502;9.146;2023-12-20T02:49:38;49.63;;;26.05;;
24644;SDS011;12780;45.502;9.146;2023-12-20T02:52:04;46.80;;;25.40;;
24644;SDS011;12780;45.502;9.146;2023-12-20T02:54:30;48.25;;;25.08;;
24644;SDS011;12780;45.502;9.146;2023-12-20T02:56:56;54.30;;;26.58;;
24644;SDS011;12780;45.502;9.146;2023-12-20T02:59:22;51.65;;;26.02;;
24644;SDS011;12780;45.502;9.146;2023-12-20T03:01:48;52.75;;;27.02;;
24644;SDS011;12780;45.502;9.146;2023-12-20T03:04:14;52.63;;;26.70;;
24644;SDS011;12780;45.502;9.146;2023-12-20T03:06:40;47.85;;;25.92;;
24644;SDS011;12780;45.502;9.146;2023-12-20T03:09:06;53.75;;;26.08;;
24644;SDS011;12780;45.502;9.146;2023-12-20T03:11:33;51.42;;;25.15;;
24644;SDS011;12780;45.502;9.146;2023-12-20T03:13:59;50.70;;;25.33;;
24644;SDS011;12780;45.502;9.146;2023-12-20T03:16:25;51.60;;;25.23;;
24644;SDS011;12780;45.502;9.146;2023-12-20T03:18:51;50.85;;;24.98;;
24644;SDS011;12780;45.502;9.146;2023-12-20T03:21:17;48.83;;;25.67;;
24644;SDS011;12780;45.502;9.146;2023-12-20T03:23:43;51.97;;;26.20;;
24644;SDS011;12780;45.502;9.146;2023-12-20T03:26:09;52.60;;;25.98;;
24644;SDS011;12780;45.502;9.146;2023-12-20T03:28:38;50.95;;;24.38;;
24644;SDS011;12780;45.502;9.146;2023-12-20T03:31:04;56.22;;;25.58;;
24644;SDS011;12780;45.502;9.146;2023-12-20T03:33:30;51.47;;;26.10;;
24644;SDS011;12780;45.502;9.146;2023-12-20T03:35:56;48.42;;;23.88;;
24644;SDS011;12780;45.502;9.146;2023-12-20T03:38:22;52.65;;;25.63;;
24644;SDS011;12780;45.502;9.146;2023-12-20T03:40:51;43.55;;;24.42;;
24644;SDS011;12780;45.502;9.146;2023-12-20T03:43:17;45.17;;;24.75;;
24644;SDS011;12780;45.502;9.146;2023-12-20T03:45:43;50.55;;;25.83;;
24644;SDS011;12780;45.502;9.146;2023-12-20T03:48:09;50.65;;;25.80;;
24644;SDS011;12780;45.502;9.146;2023-12-20T03:50:35;50.42;;;25.45;;
24644;SDS011;12780;45.502;9.146;2023-12-20T03:53:01;46.85;;;24.48;;
24644;SDS011;12780;45.502;9.146;2023-12-20T03:55:28;47.13;;;26.00;;
24644;SDS011;12780;45.502;9.146;2023-12-20T03:57:55;48.47;;;25.17;;
24644;SDS011;12780;45.502;9.146;2023-12-20T04:00:21;45.38;;;24.55;;
24644;SDS011;12780;45.502;9.146;2023-12-20T04:02:49;45.25;;;24.77;;
24644;SDS011;12780;45.502;9.146;2023-12-20T04:05:15;49.50;;;24.92;;
24644;SDS011;12780;45.502;9.146;2023-12-20T04:07:41;44.40;;;24.02;;
24644;SDS011;12780;45.502;9.146;2023-12-20T04:10:07;47.78;;;25.40;;
24644;SDS011;12780;45.502;9.146;2023-12-20T04:12:33;45.67;;;25.02;;
24644;SDS011;12780;45.502;9.146;2023-12-20T04:14:59;49.80;;;25.08;;
24644;SDS011;12780;45.502;9.146;2023-12-20T04:17:25;49.72;;;25.77;;
24644;SDS011;12780;45.502;9.146;2023-12-20T04:19:51;53.00;;;25.60;;
24644;SDS011;12780;45.502;9.146;2023-12-20T04:22:18;47.88;;;26.85;;
24644;SDS011;12780;45.502;9.146;2023-12-20T04:24:44;51.08;;;26.35;;
24644;SDS011;12780;45.502;9.146;2023-12-20T04:27:10;49.60;;;25.30;;
24644;SDS011;12780;45.502;9.146;2023-12-20T04:29:36;52.47;;;26.52;;
24644;SDS011;12780;45.502;9.146;2023-12-20T04:32:03;49.42;;;25.40;;
24644;SDS011;12780;45.502;9.146;2023-12-20T04:34:29;47.75;;;24.58;;
24644;SDS011;12780;45.502;9.146;2023-12-20T04:36:55;48.60;;;25.33;;
24644;SDS011;12780;45.502;9.146;2023-12-20T04:39:21;53.60;;;26.52;;
24644;SDS011;12780;45.502;9.146;2023-12-20T04:41:47;47.67;;;24.15;;
24644;SDS011;12780;45.502;9.146;2023-12-20T04:44:14;49.65;;;25.13;;
24644;SDS011;12780;45.502;9.146;2023-12-20T04:46:40;45.65;;;23.75;;
24644;SDS011;12780;45.502;9.146;2023-12-20T04:49:06;49.13;;;24.33;;
24644;SDS011;12780;45.502;9.146;2023-12-20T04:51:35;45.92;;;23.02;;
24644;SDS011;12780;45.502;9.146;2023-12-20T04:54:01;47.30;;;23.17;;
24644;SDS011;12780;45.502;9.146;2023-12-20T04:56:27;46.70;;;21.38;;
24644;SDS011;12780;45.502;9.146;2023-12-20T04:58:57;43.15;;;21.38;;
24644;SDS011;12780;45.502;9.146;2023-12-20T05:01:23;49.60;;;22.30;;
24644;SDS011;12780;45.502;9.146;2023-12-20T05:03:49;50.15;;;23.98;;
24644;SDS011;12780;45.502;9.146;2023-12-20T05:06:15;45.50;;;21.95;;
24644;SDS011;12780;45.502;9.146;2023-12-20T05:08:41;43.03;;;20.80;;
24644;SDS011;12780;45.502;9.146;2023-12-20T05:11:07;40.67;;;19.58;;
24644;SDS011;12780;45.502;9.146;2023-12-20T05:13:34;43.13;;;20.30;;
24644;SDS011;12780;45.502;9.146;2023-12-20T05:16:00;47.85;;;20.02;;
24644;SDS011;12780;45.502;9.146;2023-12-20T05:18:26;35.97;;;18.90;;
24644;SDS011;12780;45.502;9.146;2023-12-20T05:20:52;37.63;;;19.40;;
24644;SDS011;12780;45.502;9.146;2023-12-20T05:23:18;36.25;;;18.75;;
24644;SDS011;12780;45.502;9.146;2023-12-20T05:25:45;41.67;;;19.10;;
24644;SDS011;12780;45.502;9.146;2023-12-20T05:28:11;44.22;;;19.33;;
24644;SDS011;12780;45.502;9.146;2023-12-20T05:30:37;40.63;;;19.15;;
24644;SDS011;12780;45.502;9.146;2023-12-20T05:33:03;40.20;;;20.38;;
24644;SDS011;12780;45.502;9.146;2023-12-20T05:35:29;44.45;;;20.65;;
24644;SDS011;12780;45.502;9.146;2023-12-20T05:37:55;41.55;;;20.38;;
24644;SDS011;12780;45.502;9.146;2023-12-20T05:40:21;43.97;;;20.77;;
24644;SDS011;12780;45.502;9.146;2023-12-20T05:42:47;43.40;;;22.02;;
24644;SDS011;12780;45.502;9.146;2023-12-20T05:45:14;39.88;;;20.33;;
24644;SDS011;12780;45.502;9.146;2023-12-20T05:47:40;43.22;;;19.85;;
24644;SDS011;12780;45.502;9.146;2023-12-20T05:50:06;44.67;;;21.70;;
24644;SDS011;12780;45.502;9.146;2023-12-20T05:52:32;39.15;;;19.85;;
24644;SDS011;12780;45.502;9.146;2023-12-20T05:54:59;42.88;;;19.98;;
24644;SDS011;12780;45.502;9.146;2023-12-20T05:57:26;37.33;;;18.75;;
24644;SDS011;12780;45.502;9.146;2023-12-20T05:59:52;42.25;;;20.65;;
24644;SDS011;12780;45.502;9.146;2023-12-20T06:02:18;42.35;;;19.92;;
24644;SDS011;12780;45.502;9.146;2023-12-20T06:04:44;39.83;;;20.20;;
24644;SDS011;12780;45.502;9.146;2023-12-20T06:07:13;41.78;;;20.00;;
24644;SDS011;12780;45.502;9.146;2023-12-20T06:09:40;40.65;;;20.27;;
24644;SDS011;12780;45.502;9.146;2023-12-20T06:12:06;39.25;;;20.17;;
24644;SDS011;12780;45.502;9.146;2023-12-20T06:14:33;41.72;;;20.25;;
24644;SDS011;12780;45.502;9.146;2023-12-20T06:16:59;43.25;;;20.77;;
24644;SDS011;12780;45.502;9.146;2023-12-20T06:19:26;40.72;;;19.67;;
24644;SDS011;12780;45.502;9.146;2023-12-20T06:21:52;43.05;;;21.15;;
24644;SDS011;12780;45.502;9.146;2023-12-20T06:24:18;45.60;;;20.77;;
24644;SDS011;12780;45.502;9.146;2023-12-20T06:26:45;45.90;;;20.52;;
24644;SDS011;12780;45.502;9.146;2023-12-20T06:29:11;48.13;;;20.52;;
24644;SDS011;12780;45.502;9.146;2023-12-20T06:31:37;40.47;;;20.50;;
24644;SDS011;12780;45.502;9.146;2023-12-20T06:34:03;52.63;;;20.52;;
24644;SDS011;12780;45.502;9.146;2023-12-20T06:36:29;40.63;;;20.52;;
24644;SDS011;12780;45.502;9.146;2023-12-20T06:38:55;44.00;;;20.33;;
24644;SDS011;12780;45.502;9.146;2023-12-20T06:41:21;40.50;;;21.05;;
24644;SDS011;12780;45.502;9.146;2023-12-20T06:43:49;41.47;;;20.65;;
24644;SDS011;12780;45.502;9.146;2023-12-20T06:46:15;47.85;;;20.25;;
24644;SDS011;12780;45.502;9.146;2023-12-20T06:48:41;47.00;;;20.77;;
24644;SDS011;12780;45.502;9.146;2023-12-20T06:51:10;50.22;;;19.85;;
24644;SDS011;12780;45.502;9.146;2023-12-20T06:53:36;44.45;;;19.55;;
24644;SDS011;12780;45.502;9.146;2023-12-20T06:56:02;51.17;;;21.15;;
24644;SDS011;12780;45.502;9.146;2023-12-20T06:58:28;51.22;;;20.55;;
24644;SDS011;12780;45.502;9.146;2023-12-20T07:00:54;47.92;;;21.13;;
24644;SDS011;12780;45.502;9.146;2023-12-20T07:03:20;42.20;;;19.92;;
24644;SDS011;12780;45.502;9.146;2023-12-20T07:05:46;46.33;;;20.02;;
24644;SDS011;12780;45.502;9.146;2023-12-20T07:08:13;43.55;;;19.40;;
24644;SDS011;12780;45.502;9.146;2023-12-20T07:10:40;45.33;;;19.63;;
24644;SDS011;12780;45.502;9.146;2023-12-20T07:13:06;44.00;;;20.40;;
24644;SDS011;12780;45.502;9.146;2023-12-20T07:15:33;47.70;;;21.58;;
24644;SDS011;12780;45.502;9.146;2023-12-20T07:17:59;51.35;;;21.08;;
24644;SDS011;12780;45.502;9.146;2023-12-20T07:20:25;54.13;;;21.35;;
24644;SDS011;12780;45.502;9.146;2023-12-20T07:22:51;50.25;;;23.33;;
24644;SDS011;12780;45.502;9.146;2023-12-20T07:25:17;47.85;;;23.08;;
24644;SDS011;12780;45.502;9.146;2023-12-20T07:27:45;53.83;;;23.67;;
24644;SDS011;12780;45.502;9.146;2023-12-20T07:30:11;52.30;;;23.10;;
24644;SDS011;12780;45.502;9.146;2023-12-20T07:32:37;52.38;;;22.65;;
24644;SDS011;12780;45.502;9.146;2023-12-20T07:35:03;46.35;;;23.88;;
24644;SDS011;12780;45.502;9.146;2023-12-20T07:37:30;46.90;;;24.35;;
24644;SDS011;12780;45.502;9.146;2023-12-20T07:39:56;55.40;;;23.98;;
24644;SDS011;12780;45.502;9.146;2023-12-20T07:42:22;48.15;;;23.70;;
24644;SDS011;12780;45.502;9.146;2023-12-20T07:44:48;51.30;;;22.63;;
24644;SDS011;12780;45.502;9.146;2023-12-20T07:47:14;45.17;;;22.08;;
24644;SDS011;12780;45.502;9.146;2023-12-20T07:49:43;52.22;;;22.30;;
24644;SDS011;12780;45.502;9.146;2023-12-20T07:52:09;58.22;;;23.60;;
24644;SDS011;12780;45.502;9.146;2023-12-20T07:54:35;54.10;;;23.40;;
24644;SDS011;12780;45.502;9.146;2023-12-20T07:57:01;55.35;;;24.30;;
24644;SDS011;12780;45.502;9.146;2023-12-20T07:59:27;43.80;;;23.02;;
24644;SDS011;12780;45.502;9.146;2023-12-20T08:01:53;54.58;;;23.95;;
24644;SDS011;12780;45.502;9.146;2023-12-20T08:04:19;50.70;;;24.02;;
24644;SDS011;12780;45.502;9.146;2023-12-20T08:06:45;54.20;;;22.45;;
24644;SDS011;12780;45.502;9.146;2023-12-20T08:09:11;50.15;;;24.42;;
24644;SDS011;12780;45.502;9.146;2023-12-20T08:11:37;48.83;;;23.55;;
24644;SDS011;12780;45.502;9.146;2023-12-20T08:14:03;54.00;;;24.13;;
24644;SDS011;12780;45.502;9.146;2023-12-20T08:16:29;48.15;;;21.70;;
24644;SDS011;12780;45.502;9.146;2023-12-20T08:18:55;51.55;;;21.55;;
24644;SDS011;12780;45.502;9.146;2023-12-20T08:21:21;46.33;;;22.10;;
24644;SDS011;12780;45.502;9.146;2023-12-20T08:23:47;49.35;;;22.50;;
24644;SDS011;12780;45.502;9.146;2023-12-20T08:26:14;47.33;;;22.13;;
24644;SDS011;12780;45.502;9.146;2023-12-20T08:28:45;64.72;;;21.05;;
24644;SDS011;12780;45.502;9.146;2023-12-20T08:31:14;44.80;;;21.10;;
24644;SDS011;12780;45.502;9.146;2023-12-20T08:33:41;45.78;;;21.95;;
24644;SDS011;12780;45.502;9.146;2023-12-20T08:36:07;45.85;;;21.35;;
24644;SDS011;12780;45.502;9.146;2023-12-20T08:38:33;48.38;;;20.80;;
24644;SDS011;12780;45.502;9.146;2023-12-20T08:40:59;43.55;;;21.83;;
24644;SDS011;12780;45.502;9.146;2023-12-20T08:43:26;49.28;;;22.40;;
24644;SDS011;12780;45.502;9.146;2023-12-20T08:45:52;47.03;;;22.05;;
24644;SDS011;12780;45.502;9.146;2023-12-20T08:48:18;39.83;;;21.17;;
24644;SDS011;12780;45.502;9.146;2023-12-20T08:50:44;43.67;;;21.60;;
24644;SDS011;12780;45.502;9.146;2023-12-20T08:53:10;48.92;;;21.70;;
24644;SDS011;12780;45.502;9.146;2023-12-20T08:55:36;42.53;;;19.50;;
24644;SDS011;12780;45.502;9.146;2023-12-20T08:58:03;53.15;;;21.02;;
24644;SDS011;12780;45.502;9.146;2023-12-20T09:00:31;61.88;;;22.13;;
24644;SDS011;12780;45.502;9.146;2023-12-20T09:02:57;59.80;;;22.30;;
24644;SDS011;12780;45.502;9.146;2023-12-20T09:05:24;47.92;;;21.45;;
24644;SDS011;12780;45.502;9.146;2023-12-20T09:07:50;52.40;;;21.52;;
24644;SDS011;12780;45.502;9.146;2023-12-20T09:10:16;44.50;;;20.88;;
24644;SDS011;12780;45.502;9.146;2023-12-20T09:12:47;50.72;;;21.40;;
24644;SDS011;12780;45.502;9.146;2023-12-20T09:15:13;46.55;;;21.55;;
24644;SDS011;12780;45.502;9.146;2023-12-20T09:17:40;51.22;;;21.65;;
24644;SDS011;12780;45.502;9.146;2023-12-20T09:20:06;47.05;;;22.40;;
24644;SDS011;12780;45.502;9.146;2023-12-20T09:22:33;51.42;;;22.80;;
24644;SDS011;12780;45.502;9.146;2023-12-20T09:24:59;55.45;;;22.38;;
24644;SDS011;12780;45.502;9.146;2023-12-20T09:27:26;40.55;;;23.25;;
24644;SDS011;12780;45.502;9.146;2023-12-20T09:29:52;59.10;;;25.42;;
24644;SDS011;12780;45.502;9.146;2023-12-20T09:32:19;57.25;;;26.02;;
24644;SDS011;12780;45.502;9.146;2023-12-20T09:34:47;57.45;;;26.88;;
24644;SDS011;12780;45.502;9.146;2023-12-20T09:37:14;60.65;;;28.20;;
24644;SDS011;12780;45.502;9.146;2023-12-20T09:39:40;59.15;;;28.58;;
24644;SDS011;12780;45.502;9.146;2023-12-20T09:42:06;59.35;;;28.02;;
24644;SDS011;12780;45.502;9.146;2023-12-20T09:44:33;58.28;;;29.38;;
24644;SDS011;12780;45.502;9.146;2023-12-20T09:47:05;60.25;;;29.58;;
24644;SDS011;12780;45.502;9.146;2023-12-20T09:49:31;55.55;;;30.25;;
24644;SDS011;12780;45.502;9.146;2023-12-20T09:51:57;62.58;;;31.05;;
24644;SDS011;12780;45.502;9.146;2023-12-20T09:54:25;53.60;;;29.80;;
24644;SDS011;12780;45.502;9.146;2023-12-20T09:56:52;54.50;;;30.27;;
24644;SDS011;12780;45.502;9.146;2023-12-20T09:59:18;59.15;;;30.17;;
24644;SDS011;12780;45.502;9.146;2023-12-20T10:01:44;67.32;;;29.83;;
24644;SDS011;12780;45.502;9.146;2023-12-20T10:04:11;58.65;;;30.15;;
24644;SDS011;12780;45.502;9.146;2023-12-20T10:06:41;58.13;;;29.00;;
24644;SDS011;12780;45.502;9.146;2023-12-20T10:09:08;48.38;;;28.27;;
24644;SDS011;12780;45.502;9.146;2023-12-20T10:11:35;54.90;;;29.73;;
24644;SDS011;12780;45.502;9.146;2023-12-20T10:14:02;54.15;;;30.35;;
24644;SDS011;12780;45.502;9.146;2023-12-20T10:16:28;64.15;;;31.55;;
24644;SDS011;12780;45.502;9.146;2023-12-20T10:18:55;56.45;;;30.65;;
24644;SDS011;12780;45.502;9.146;2023-12-20T10:21:22;57.72;;;30.90;;
24644;SDS011;12780;45.502;9.146;2023-12-20T10:23:51;59.38;;;30.17;;
24644;SDS011;12780;45.502;9.146;2023-12-20T10:26:24;69.22;;;31.27;;
24644;SDS011;12780;45.502;9.146;2023-12-20T10:28:50;58.17;;;29.75;;
24644;SDS011;12780;45.502;9.146;2023-12-20T10:31:27;55.78;;;30.02;;
24644;SDS011;12780;45.502;9.146;2023-12-20T10:33:55;61.78;;;29.38;;
24644;SDS011;12780;45.502;9.146;2023-12-20T10:36:21;54.47;;;29.75;;
24644;SDS011;12780;45.502;9.146;2023-12-20T10:38:49;57.85;;;30.65;;
24644;SDS011;12780;45.502;9.146;2023-12-20T10:41:17;54.10;;;30.13;;
24644;SDS011;12780;45.502;9.146;2023-12-20T10:43:45;54.90;;;28.73;;
24644;SDS011;12780;45.502;9.146;2023-12-20T10:46:11;59.95;;;30.85;;
24644;SDS011;12780;45.502;9.146;2023-12-20T10:48:38;58.13;;;29.77;;
24644;SDS011;12780;45.502;9.146;2023-12-20T10:51:05;61.85;;;28.42;;
24644;SDS011;12780;45.502;9.146;2023-12-20T10:53:31;59.97;;;30.08;;
24644;SDS011;12780;45.502;9.146;2023-12-20T10:55:58;52.35;;;28.70;;
24644;SDS011;12780;45.502;9.146;2023-12-20T10:58:26;54.45;;;27.08;;
24644;SDS011;12780;45.502;9.146;2023-12-20T11:00:54;56.90;;;27.50;;
24644;SDS011;12780;45.502;9.146;2023-12-20T11:03:24;62.05;;;27.20;;
24644;SDS011;12780;45.502;9.146;2023-12-20T11:05:53;59.90;;;28.92;;
24644;SDS011;12780;45.502;9.146;2023-12-20T11:08:39;59.05;;;29.05;;
24644;SDS011;12780;45.502;9.146;2023-12-20T11:11:41;57.30;;;26.45;;
24644;SDS011;12780;45.502;9.146;2023-12-20T11:16:25;50.42;;;24.85;;
24644;SDS011;12780;45.502;9.146;2023-12-20T11:18:51;46.22;;;25.00;;
24644;SDS011;12780;45.502;9.146;2023-12-20T11:21:17;61.08;;;26.52;;
24644;SDS011;12780;45.502;9.146;2023-12-20T11:23:43;54.50;;;27.08;;
24644;SDS011;12780;45.502;9.146;2023-12-20T11:26:09;64.72;;;27.67;;
24644;SDS011;12780;45.502;9.146;2023-12-20T11:28:35;55.17;;;26.98;;
24644;SDS011;12780;45.502;9.146;2023-12-20T11:31:01;52.63;;;23.95;;
24644;SDS011;12780;45.502;9.146;2023-12-20T11:33:32;43.70;;;25.05;;
24644;SDS011;12780;45.502;9.146;2023-12-20T11:35:58;47.25;;;24.38;;
24644;SDS011;12780;45.502;9.146;2023-12-20T11:38:25;46.78;;;23.98;;
24644;SDS011;12780;45.502;9.146;2023-12-20T11:40:53;52.25;;;23.70;;
24644;SDS011;12780;45.502;9.146;2023-12-20T11:43:32;42.53;;;23.60;;
24644;SDS011;12780;45.502;9.146;2023-12-20T11:46:10;49.67;;;23.75;;
24644;SDS011;12780;45.502;9.146;2023-12-20T11:48:37;39.63;;;23.70;;
24644;SDS011;12780;45.502;9.146;2023-12-20T11:51:08;42.58;;;24.65;;
24644;SDS011;12780;45.502;9.146;2023-12-20T11:53:35;56.70;;;24.02;;
24644;SDS011;12780;45.502;9.146;2023-12-20T11:56:02;53.60;;;24.35;;
24644;SDS011;12780;45.502;9.146;2023-12-20T11:58:28;42.40;;;23.73;;
24644;SDS011;12780;45.502;9.146;2023-12-20T12:00:55;46.95;;;24.65;;
24644;SDS011;12780;45.502;9.146;2023-12-20T12:03:21;46.10;;;24.77;;
24644;SDS011;12780;45.502;9.146;2023-12-20T12:05:48;42.05;;;23.50;;
24644;SDS011;12780;45.502;9.146;2023-12-20T12:08:14;45.63;;;24.08;;
24644;SDS011;12780;45.502;9.146;2023-12-20T12:10:41;42.38;;;24.27;;
24644;SDS011;12780;45.502;9.146;2023-12-20T12:13:07;42.60;;;24.55;;
24644;SDS011;12780;45.502;9.146;2023-12-20T12:15:33;44.72;;;22.65;;
24644;SDS011;12780;45.502;9.146;2023-12-20T12:17:59;45.05;;;24.13;;
24644;SDS011;12780;45.502;9.146;2023-12-20T12:20:25;47.22;;;23.05;;
24644;SDS011;12780;45.502;9.146;2023-12-20T12:22:59;39.33;;;23.10;;
24644;SDS011;12780;45.502;9.146;2023-12-20T12:25:26;46.17;;;24.55;;
24644;SDS011;12780;45.502;9.146;2023-12-20T12:27:52;42.28;;;23.77;;
24644;SDS011;12780;45.502;9.146;2023-12-20T12:30:18;44.20;;;24.67;;
24644;SDS011;12780;45.502;9.146;2023-12-20T12:32:44;44.85;;;23.45;;
24644;SDS011;12780;45.502;9.146;2023-12-20T12:35:10;50.03;;;25.60;;
24644;SDS011;12780;45.502;9.146;2023-12-20T12:37:40;45.45;;;24.38;;
24644;SDS011;12780;45.502;9.146;2023-12-20T12:40:07;51.40;;;24.67;;
24644;SDS011;12780;45.502;9.146;2023-12-20T12:42:35;50.60;;;24.98;;
24644;SDS011;12780;45.502;9.146;2023-12-20T12:45:02;39.67;;;23.48;;
24644;SDS011;12780;45.502;9.146;2023-12-20T12:47:28;45.38;;;24.45;;
24644;SDS011;12780;45.502;9.146;2023-12-20T12:49:54;46.67;;;24.13;;
24644;SDS011;12780;45.502;9.146;2023-12-20T12:52:20;43.60;;;25.05;;
24644;SDS011;12780;45.502;9.146;2023-12-20T12:54:46;44.78;;;24.85;;
24644;SDS011;12780;45.502;9.146;2023-12-20T12:57:13;42.47;;;24.38;;
24644;SDS011;12780;45.502;9.146;2023-12-20T12:59:39;47.30;;;23.92;;
24644;SDS011;12780;45.502;9.146;2023-12-20T13:02:05;49.00;;;23.35;;
24644;SDS011;12780;45.502;9.146;2023-12-20T13:04:31;41.33;;;23.70;;
24644;SDS011;12780;45.502;9.146;2023-12-20T13:06:57;40.28;;;23.05;;
24644;SDS011;12780;45.502;9.146;2023-12-20T13:09:23;40.30;;;22.38;;
24644;SDS011;12780;45.502;9.146;2023-12-20T13:11:49;36.50;;;21.52;;
24644;SDS011;12780;45.502;9.146;2023-12-20T13:14:15;37.75;;;22.00;;
24644;SDS011;12780;45.502;9.146;2023-12-20T13:16:42;43.67;;;23.23;;
24644;SDS011;12780;45.502;9.146;2023-12-20T13:19:09;44.10;;;23.52;;
24644;SDS011;12780;45.502;9.146;2023-12-20T13:21:35;36.70;;;21.70;;
24644;SDS011;12780;45.502;9.146;2023-12-20T13:24:01;38.22;;;22.15;;
24644;SDS011;12780;45.502;9.146;2023-12-20T13:26:28;43.20;;;21.77;;
24644;SDS011;12780;45.502;9.146;2023-12-20T13:28:54;38.60;;;23.45;;
24644;SDS011;12780;45.502;9.146;2023-12-20T13:31:20;49.17;;;25.23;;
24644;SDS011;12780;45.502;9.146;2023-12-20T13:33:46;39.88;;;23.85;;
24644;SDS011;12780;45.502;9.146;2023-12-20T13:36:12;45.65;;;25.02;;
24644;SDS011;12780;45.502;9.146;2023-12-20T13:38:39;40.03;;;23.27;;
24644;SDS011;12780;45.502;9.146;2023-12-20T13:41:05;45.10;;;23.52;;
24644;SDS011;12780;45.502;9.146;2023-12-20T13:43:31;46.72;;;24.60;;
24644;SDS011;12780;45.502;9.146;2023-12-20T13:45:58;46.05;;;24.40;;
24644;SDS011;12780;45.502;9.146;2023-12-20T13:48:24;45.20;;;24.38;;
24644;SDS011;12780;45.502;9.146;2023-12-20T13:50:50;41.17;;;22.52;;
24644;SDS011;12780;45.502;9.146;2023-12-20T13:53:16;45.53;;;23.20;;
24644;SDS011;12780;45.502;9.146;2023-12-20T13:55:42;53.70;;;24.50;;
24644;SDS011;12780;45.502;9.146;2023-12-20T13:58:08;43.25;;;24.63;;
24644;SDS011;12780;45.502;9.146;2023-12-20T14:00:37;47.25;;;25.20;;
24644;SDS011;12780;45.502;9.146;2023-12-20T14:03:03;52.08;;;25.33;;
24644;SDS011;12780;45.502;9.146;2023-12-20T14:05:29;48.15;;;25.08;;
24644;SDS011;12780;45.502;9.146;2023-12-20T14:07:56;43.50;;;25.40;;
24644;SDS011;12780;45.502;9.146;2023-12-20T14:10:22;41.33;;;24.27;;
24644;SDS011;12780;45.502;9.146;2023-12-20T14:12:48;47.20;;;26.15;;
24644;SDS011;12780;45.502;9.146;2023-12-20T14:15:14;46.67;;;26.33;;
24644;SDS011;12780;45.502;9.146;2023-12-20T14:17:40;50.33;;;27.13;;
24644;SDS011;12780;45.502;9.146;2023-12-20T14:20:07;49.88;;;27.50;;